createdAt,value
2017-07-11T00:00:12.500Z,1002.03
2017-07-11T00:00:53.102Z,1002.07
2017-07-11T00:01:33.657Z,1002.02
2017-07-11T00:02:14.235Z,1002.04
2017-07-11T00:02:54.833Z,1002.06
2017-07-11T00:03:35.412Z,1002.08
2017-07-11T00:04:16.012Z,1002.06
2017-07-11T00:04:56.589Z,1002.09
2017-07-11T00:05:37.199Z,1002.08
2017-07-11T00:06:17.775Z,1002.07
2017-07-11T00:06:58.349Z,1002.07
2017-07-11T00:07:38.922Z,1002.13
2017-07-11T00:08:19.505Z,1002.15
2017-07-11T00:09:00.129Z,1002.12
2017-07-11T00:09:40.706Z,1002.16
2017-07-11T00:10:21.312Z,1002.13
2017-07-11T00:11:01.936Z,1002.14
2017-07-11T00:11:42.507Z,1002.09
2017-07-11T00:12:23.124Z,1002.14
2017-07-11T00:13:03.827Z,1002.2
2017-07-11T00:13:44.422Z,1002.13
2017-07-11T00:14:25.015Z,1002.1
2017-07-11T00:15:05.585Z,1002.17
2017-07-11T00:15:46.193Z,1002.17
2017-07-11T00:16:26.782Z,1002.13
2017-07-11T00:17:07.365Z,1002.14
2017-07-11T00:17:47.938Z,1002.14
2017-07-11T00:18:28.524Z,1002.18
2017-07-11T00:19:09.096Z,1002.21
2017-07-11T00:19:49.657Z,1002.22
2017-07-11T00:20:30.240Z,1002.25
2017-07-11T00:21:10.808Z,1002.27
2017-07-11T00:21:51.407Z,1002.32
2017-07-11T00:22:32.000Z,1002.31
2017-07-11T00:23:12.572Z,1002.33
2017-07-11T00:23:53.154Z,1002.36
2017-07-11T00:24:33.719Z,1002.34
2017-07-11T00:25:14.284Z,1002.4
2017-07-11T00:25:54.901Z,1002.39
2017-07-11T00:26:35.466Z,1002.42
2017-07-11T00:27:16.043Z,1002.5
2017-07-11T00:27:56.604Z,1002.43
2017-07-11T00:28:37.172Z,1002.5
2017-07-11T00:29:17.733Z,1002.5
2017-07-11T00:29:58.316Z,1002.49
2017-07-11T00:30:38.898Z,1002.59
2017-07-11T00:31:19.550Z,1002.6
2017-07-11T00:32:06.626Z,1002.62
2017-07-11T00:32:47.193Z,1002.69
2017-07-11T00:33:27.783Z,1002.72
2017-07-11T00:34:08.351Z,1002.74
2017-07-11T00:34:48.971Z,1002.76
2017-07-11T00:35:29.538Z,1002.77
2017-07-11T00:36:10.138Z,1002.81
2017-07-11T00:36:50.734Z,1002.81
2017-07-11T00:37:31.295Z,1002.71
2017-07-11T00:38:11.856Z,1002.75
2017-07-11T00:38:52.435Z,1002.76
2017-07-11T00:39:32.990Z,1002.75
2017-07-11T00:40:13.584Z,1002.72
2017-07-11T00:40:54.161Z,1002.73
2017-07-11T00:41:34.733Z,1002.75
2017-07-11T00:42:15.332Z,1002.73
2017-07-11T00:42:55.891Z,1002.71
2017-07-11T00:43:36.484Z,1002.73
2017-07-11T00:44:17.073Z,1002.8
2017-07-11T00:44:57.632Z,1002.77
2017-07-11T00:45:38.225Z,1002.77
2017-07-11T00:46:18.791Z,1002.77
2017-07-11T00:46:59.391Z,1002.72
2017-07-11T00:47:39.955Z,1002.73
2017-07-11T00:48:20.558Z,1002.75
2017-07-11T00:49:01.179Z,1002.77
2017-07-11T00:49:41.755Z,1002.73
2017-07-11T00:50:22.331Z,1002.67
2017-07-11T00:51:02.891Z,1002.71
2017-07-11T00:51:43.474Z,1002.73
2017-07-11T00:52:24.044Z,1002.79
2017-07-11T00:53:04.614Z,1002.78
2017-07-11T00:53:45.227Z,1002.76
2017-07-11T00:54:25.803Z,1002.81
2017-07-11T00:55:06.367Z,1002.83
2017-07-11T00:55:46.951Z,1002.83
2017-07-11T00:56:27.539Z,1002.83
2017-07-11T00:57:08.076Z,1002.83
2017-07-11T00:57:48.654Z,1002.8
2017-07-11T00:58:29.235Z,1002.83
2017-07-11T00:59:09.797Z,1002.81
2017-07-11T00:59:50.414Z,1002.83
2017-07-11T01:00:30.994Z,1002.82
2017-07-11T01:01:11.596Z,1002.82
2017-07-11T01:01:52.178Z,1002.85
2017-07-11T01:02:32.742Z,1002.83
2017-07-11T01:03:13.310Z,1002.85
2017-07-11T01:03:53.884Z,1002.86
2017-07-11T01:04:34.589Z,1002.86
2017-07-11T01:05:15.070Z,1002.83
2017-07-11T01:05:55.661Z,1002.8
2017-07-11T01:06:36.225Z,1002.79
2017-07-11T01:07:16.823Z,1002.8
2017-07-11T01:07:57.419Z,1002.8
2017-07-11T01:08:38.014Z,1002.74
2017-07-11T01:09:18.594Z,1002.76
2017-07-11T01:09:59.166Z,1002.8
2017-07-11T01:10:39.757Z,1002.83
2017-07-11T01:11:20.335Z,1002.85
2017-07-11T01:12:00.899Z,1002.85
2017-07-11T01:12:41.509Z,1002.88
2017-07-11T01:13:22.077Z,1002.88
2017-07-11T01:14:02.665Z,1002.87
2017-07-11T01:14:43.272Z,1002.88
2017-07-11T01:15:23.845Z,1002.86
2017-07-11T01:16:04.436Z,1002.88
2017-07-11T01:16:45.007Z,1002.86
2017-07-11T01:17:25.645Z,1002.88
2017-07-11T01:18:06.224Z,1002.87
2017-07-11T01:18:46.801Z,1002.95
2017-07-11T01:19:27.396Z,1002.9
2017-07-11T01:20:07.969Z,1002.9
2017-07-11T01:20:48.593Z,1002.96
2017-07-11T01:21:29.163Z,1002.99
2017-07-11T01:22:09.737Z,1002.96
2017-07-11T01:22:50.319Z,1002.94
2017-07-11T01:23:30.893Z,1002.94
2017-07-11T01:24:11.482Z,1002.93
2017-07-11T01:24:52.100Z,1002.95
2017-07-11T01:25:32.691Z,1002.98
2017-07-11T01:26:13.275Z,1002.99
2017-07-11T01:26:53.851Z,1002.95
2017-07-11T01:27:34.459Z,1002.99
2017-07-11T01:28:15.040Z,1002.98
2017-07-11T01:28:55.615Z,1002.98
2017-07-11T01:29:36.170Z,1002.99
2017-07-11T01:30:16.766Z,1002.99
2017-07-11T01:30:57.376Z,1003
2017-07-11T01:31:37.963Z,1002.98
2017-07-11T01:32:18.573Z,1003
2017-07-11T01:32:59.192Z,1002.94
2017-07-11T01:33:39.770Z,1002.9
2017-07-11T01:34:20.364Z,1002.93
2017-07-11T01:35:00.945Z,1002.94
2017-07-11T01:35:41.528Z,1002.92
2017-07-11T01:36:22.129Z,1002.91
2017-07-11T01:37:02.723Z,1002.89
2017-07-11T01:37:43.385Z,1002.89
2017-07-11T01:38:24.035Z,1002.86
2017-07-11T01:39:04.635Z,1002.87
2017-07-11T01:39:45.224Z,1002.87
2017-07-11T01:40:25.878Z,1002.77
2017-07-11T01:41:06.446Z,1002.78
2017-07-11T01:41:47.029Z,1002.72
2017-07-11T01:42:27.727Z,1002.77
2017-07-11T01:43:08.281Z,1002.77
2017-07-11T01:43:48.864Z,1002.79
2017-07-11T01:44:29.420Z,1002.83
2017-07-11T01:45:10.008Z,1002.83
2017-07-11T01:45:50.589Z,1002.89
2017-07-11T01:46:31.167Z,1002.93
2017-07-11T01:47:11.758Z,1002.87
2017-07-11T01:47:52.379Z,1002.89
2017-07-11T01:48:32.962Z,1002.93
2017-07-11T01:49:13.548Z,1002.96
2017-07-11T01:49:54.127Z,1002.94
2017-07-11T01:50:34.730Z,1002.96
2017-07-11T01:51:15.316Z,1002.93
2017-07-11T01:51:55.881Z,1002.95
2017-07-11T01:52:36.447Z,1002.99
2017-07-11T01:53:17.058Z,1002.97
2017-07-11T01:53:57.623Z,1003
2017-07-11T01:54:38.202Z,1002.97
2017-07-11T01:55:18.819Z,1002.98
2017-07-11T01:55:59.401Z,1002.96
2017-07-11T01:56:40.022Z,1002.95
2017-07-11T01:57:20.594Z,1002.96
2017-07-11T01:58:01.198Z,1003
2017-07-11T01:58:41.787Z,1003.02
2017-07-11T01:59:22.352Z,1003.03
2017-07-11T02:00:02.935Z,1003.01
2017-07-11T02:00:43.552Z,1003.06
2017-07-11T02:01:24.146Z,1002.99
2017-07-11T02:02:04.724Z,1003.01
2017-07-11T02:02:45.314Z,1003.06
2017-07-11T02:03:25.891Z,1003.06
2017-07-11T02:04:06.481Z,1003.08
2017-07-11T02:04:47.030Z,1003.05
2017-07-11T02:05:27.611Z,1003.09
2017-07-11T02:06:08.183Z,1003.11
2017-07-11T02:06:48.758Z,1003.14
2017-07-11T02:07:29.325Z,1003.12
2017-07-11T02:08:09.908Z,1003.19
2017-07-11T02:08:50.489Z,1003.16
2017-07-11T02:09:31.055Z,1003.16
2017-07-11T02:10:11.635Z,1003.17
2017-07-11T02:10:52.215Z,1003.22
2017-07-11T02:11:32.782Z,1003.19
2017-07-11T02:12:13.367Z,1003.17
2017-07-11T02:12:53.955Z,1003.14
2017-07-11T02:13:34.530Z,1003.2
2017-07-11T02:14:15.122Z,1003.15
2017-07-11T02:14:55.700Z,1003.18
2017-07-11T02:15:36.288Z,1003.19
2017-07-11T02:16:17.259Z,1003.2
2017-07-11T02:16:57.836Z,1003.21
2017-07-11T02:17:38.405Z,1003.16
2017-07-11T02:18:19.014Z,1003.17
2017-07-11T02:18:59.581Z,1003.19
2017-07-11T02:19:40.180Z,1003.17
2017-07-11T02:20:20.757Z,1003.16
2017-07-11T02:21:01.353Z,1003.19
2017-07-11T02:21:41.937Z,1003.19
2017-07-11T02:22:22.509Z,1003.18
2017-07-11T02:23:03.077Z,1003.16
2017-07-11T02:23:43.647Z,1003.19
2017-07-11T02:24:24.266Z,1003.19
2017-07-11T02:25:04.797Z,1003.22
2017-07-11T02:25:45.353Z,1003.18
2017-07-11T02:26:25.935Z,1003.26
2017-07-11T02:27:06.643Z,1003.17
2017-07-11T02:27:47.220Z,1003.14
2017-07-11T02:28:27.804Z,1003.15
2017-07-11T02:29:08.558Z,1003.07
2017-07-11T02:29:49.137Z,1003.1
2017-07-11T02:30:29.703Z,1003.06
2017-07-11T02:31:10.293Z,1003.09
2017-07-11T02:31:51.047Z,1003.06
2017-07-11T02:32:31.617Z,1003.07
2017-07-11T02:33:12.200Z,1003.07
2017-07-11T02:33:52.967Z,1003.06
2017-07-11T02:34:33.570Z,1003.12
2017-07-11T02:35:14.137Z,1003.12
2017-07-11T02:35:54.776Z,1003.13
2017-07-11T02:36:35.340Z,1003.22
2017-07-11T02:37:15.943Z,1003.21
2017-07-11T02:37:56.528Z,1003.23
2017-07-11T02:38:37.546Z,1003.25
2017-07-11T02:39:18.140Z,1003.26
2017-07-11T02:39:58.698Z,1003.27
2017-07-11T02:40:39.267Z,1003.27
2017-07-11T02:41:19.824Z,1003.26
2017-07-11T02:42:00.399Z,1003.28
2017-07-11T02:42:40.986Z,1003.32
2017-07-11T02:43:21.664Z,1003.28
2017-07-11T02:44:02.277Z,1003.32
2017-07-11T02:44:42.860Z,1003.34
2017-07-11T02:45:23.442Z,1003.33
2017-07-11T02:46:04.008Z,1003.29
2017-07-11T02:46:44.602Z,1003.3
2017-07-11T02:47:25.166Z,1003.3
2017-07-11T02:48:05.760Z,1003.3
2017-07-11T02:48:46.719Z,1003.3
2017-07-11T02:49:27.337Z,1003.26
2017-07-11T02:50:07.988Z,1003.26
2017-07-11T02:50:48.565Z,1003.29
2017-07-11T02:51:29.131Z,1003.26
2017-07-11T02:52:09.712Z,1003.26
2017-07-11T02:52:50.294Z,1003.3
2017-07-11T02:53:30.894Z,1003.27
2017-07-11T02:54:11.454Z,1003.27
2017-07-11T02:54:52.059Z,1003.27
2017-07-11T02:55:32.622Z,1003.28
2017-07-11T02:56:13.424Z,1003.31
2017-07-11T02:56:54.034Z,1003.34
2017-07-11T02:57:34.621Z,1003.28
2017-07-11T02:58:15.227Z,1003.31
2017-07-11T02:58:55.795Z,1003.33
2017-07-11T02:59:36.414Z,1003.36
2017-07-11T03:00:16.977Z,1003.37
2017-07-11T03:00:57.561Z,1003.4
2017-07-11T03:01:38.141Z,1003.41
2017-07-11T03:02:18.726Z,1003.4
2017-07-11T03:02:59.309Z,1003.37
2017-07-11T03:03:39.865Z,1003.39
2017-07-11T03:04:20.453Z,1003.37
2017-07-11T03:05:01.020Z,1003.36
2017-07-11T03:05:41.602Z,1003.37
2017-07-11T03:06:22.177Z,1003.37
2017-07-11T03:07:02.756Z,1003.35
2017-07-11T03:07:43.324Z,1003.27
2017-07-11T03:08:23.898Z,1003.3
2017-07-11T03:09:04.480Z,1003.25
2017-07-11T03:09:45.059Z,1003.31
2017-07-11T03:10:25.653Z,1003.27
2017-07-11T03:11:06.240Z,1003.27
2017-07-11T03:11:46.816Z,1003.28
2017-07-11T03:12:27.670Z,1003.31
2017-07-11T03:13:08.239Z,1003.32
2017-07-11T03:13:48.805Z,1003.37
2017-07-11T03:14:29.386Z,1003.37
2017-07-11T03:15:09.962Z,1003.35
2017-07-11T03:15:50.536Z,1003.39
2017-07-11T03:16:31.098Z,1003.35
2017-07-11T03:17:11.657Z,1003.37
2017-07-11T03:17:52.252Z,1003.36
2017-07-11T03:18:32.843Z,1003.4
2017-07-11T03:19:13.736Z,1003.46
2017-07-11T03:19:54.315Z,1003.41
2017-07-11T03:20:35.029Z,1003.42
2017-07-11T03:21:15.582Z,1003.47
2017-07-11T03:21:56.165Z,1003.5
2017-07-11T03:22:36.733Z,1003.46
2017-07-11T03:23:17.301Z,1003.52
2017-07-11T03:23:57.870Z,1003.5
2017-07-11T03:24:38.455Z,1003.52
2017-07-11T03:25:19.037Z,1003.52
2017-07-11T03:25:59.638Z,1003.53
2017-07-11T03:26:40.208Z,1003.58
2017-07-11T03:27:20.770Z,1003.6
2017-07-11T03:28:01.387Z,1003.57
2017-07-11T03:28:41.954Z,1003.65
2017-07-11T03:29:22.532Z,1003.6
2017-07-11T03:30:03.244Z,1003.63
2017-07-11T03:30:43.827Z,1003.65
2017-07-11T03:31:24.392Z,1003.62
2017-07-11T03:32:04.979Z,1003.65
2017-07-11T03:32:45.557Z,1003.62
2017-07-11T03:33:26.133Z,1003.61
2017-07-11T03:34:06.720Z,1003.63
2017-07-11T03:34:47.299Z,1003.64
2017-07-11T03:35:27.886Z,1003.66
2017-07-11T03:36:08.466Z,1003.66
2017-07-11T03:36:49.038Z,1003.67
2017-07-11T03:37:29.619Z,1003.67
2017-07-11T03:38:10.173Z,1003.7
2017-07-11T03:38:50.740Z,1003.76
2017-07-11T03:39:31.349Z,1003.72
2017-07-11T03:40:11.957Z,1003.75
2017-07-11T03:40:52.546Z,1003.76
2017-07-11T03:41:33.171Z,1003.83
2017-07-11T03:42:13.769Z,1003.79
2017-07-11T03:42:54.319Z,1003.78
2017-07-11T03:43:34.936Z,1003.81
2017-07-11T03:44:15.509Z,1003.81
2017-07-11T03:44:56.072Z,1003.83
2017-07-11T03:45:36.631Z,1003.82
2017-07-11T03:46:17.208Z,1003.83
2017-07-11T03:46:57.764Z,1003.86
2017-07-11T03:47:38.341Z,1003.85
2017-07-11T03:48:18.928Z,1003.85
2017-07-11T03:48:59.517Z,1003.87
2017-07-11T03:49:40.083Z,1003.89
2017-07-11T03:50:20.660Z,1003.89
2017-07-11T03:51:01.224Z,1003.95
2017-07-11T03:51:41.796Z,1003.95
2017-07-11T03:52:22.377Z,1003.96
2017-07-11T03:53:02.945Z,1003.96
2017-07-11T03:53:43.536Z,1003.97
2017-07-11T03:54:24.092Z,1004
2017-07-11T03:55:04.666Z,1004.04
2017-07-11T03:55:45.228Z,1004.06
2017-07-11T03:56:25.793Z,1004.08
2017-07-11T03:57:06.405Z,1004.09
2017-07-11T03:57:46.978Z,1004.11
2017-07-11T03:58:27.572Z,1004.11
2017-07-11T03:59:08.248Z,1004.1
2017-07-11T03:59:48.822Z,1004.13
2017-07-11T04:00:29.409Z,1004.11
2017-07-11T04:01:10.024Z,1004.11
2017-07-11T04:01:50.592Z,1004.14
2017-07-11T04:02:31.160Z,1004.11
2017-07-11T04:03:11.744Z,1004.12
2017-07-11T04:03:52.413Z,1004.1
2017-07-11T04:04:33.014Z,1004.12
2017-07-11T04:05:13.594Z,1004.09
2017-07-11T04:05:54.172Z,1004.09
2017-07-11T04:06:34.833Z,1004.09
2017-07-11T04:07:15.395Z,1004.09
2017-07-11T04:07:55.959Z,1004.09
2017-07-11T04:08:36.543Z,1004.09
2017-07-11T04:09:17.183Z,1004.12
2017-07-11T04:09:57.776Z,1004.12
2017-07-11T04:10:38.344Z,1004.12
2017-07-11T04:11:18.922Z,1004.16
2017-07-11T04:11:59.510Z,1004.14
2017-07-11T04:12:40.091Z,1004.16
2017-07-11T04:13:20.666Z,1004.23
2017-07-11T04:14:01.225Z,1004.21
2017-07-11T04:14:41.965Z,1004.17
2017-07-11T04:15:22.571Z,1004.19
2017-07-11T04:16:03.135Z,1004.15
2017-07-11T04:16:43.712Z,1004.15
2017-07-11T04:17:24.316Z,1004.14
2017-07-11T04:18:04.885Z,1004.12
2017-07-11T04:18:45.447Z,1004.18
2017-07-11T04:19:26.009Z,1004.17
2017-07-11T04:20:06.564Z,1004.17
2017-07-11T04:20:47.148Z,1004.19
2017-07-11T04:21:27.719Z,1004.16
2017-07-11T04:22:08.319Z,1004.21
2017-07-11T04:22:48.965Z,1004.21
2017-07-11T04:23:29.542Z,1004.19
2017-07-11T04:24:10.129Z,1004.2
2017-07-11T04:24:50.698Z,1004.25
2017-07-11T04:25:31.265Z,1004.2
2017-07-11T04:26:11.834Z,1004.21
2017-07-11T04:26:52.397Z,1004.2
2017-07-11T04:27:33.124Z,1004.2
2017-07-11T04:28:13.690Z,1004.2
2017-07-11T04:28:54.264Z,1004.21
2017-07-11T04:29:34.837Z,1004.23
2017-07-11T04:30:15.395Z,1004.22
2017-07-11T04:30:55.961Z,1004.24
2017-07-11T04:31:36.537Z,1004.27
2017-07-11T04:32:17.107Z,1004.23
2017-07-11T04:32:57.684Z,1004.26
2017-07-11T04:33:38.248Z,1004.29
2017-07-11T04:34:18.818Z,1004.3
2017-07-11T04:34:59.388Z,1004.3
2017-07-11T04:35:40.015Z,1004.31
2017-07-11T04:36:20.610Z,1004.31
2017-07-11T04:37:01.200Z,1004.28
2017-07-11T04:37:41.768Z,1004.33
2017-07-11T04:38:22.330Z,1004.29
2017-07-11T04:39:03.848Z,1004.28
2017-07-11T04:39:44.419Z,1004.31
2017-07-11T04:40:24.995Z,1004.29
2017-07-11T04:41:05.559Z,1004.3
2017-07-11T04:41:46.138Z,1004.33
2017-07-11T04:42:26.818Z,1004.33
2017-07-11T04:43:07.376Z,1004.32
2017-07-11T04:43:47.948Z,1004.32
2017-07-11T04:44:28.520Z,1004.33
2017-07-11T04:45:09.117Z,1004.36
2017-07-11T04:45:49.689Z,1004.36
2017-07-11T04:46:30.271Z,1004.34
2017-07-11T04:47:10.832Z,1004.35
2017-07-11T04:47:51.404Z,1004.35
2017-07-11T04:48:32.022Z,1004.34
2017-07-11T04:49:12.569Z,1004.37
2017-07-11T04:49:53.158Z,1004.36
2017-07-11T04:50:33.748Z,1004.35
2017-07-11T04:51:14.333Z,1004.35
2017-07-11T04:51:54.907Z,1004.4
2017-07-11T04:52:35.495Z,1004.43
2017-07-11T04:53:16.066Z,1004.39
2017-07-11T04:53:56.663Z,1004.42
2017-07-11T04:54:37.250Z,1004.42
2017-07-11T04:55:17.802Z,1004.45
2017-07-11T04:55:58.383Z,1004.43
2017-07-11T04:56:38.961Z,1004.49
2017-07-11T04:57:19.525Z,1004.44
2017-07-11T04:58:00.177Z,1004.48
2017-07-11T04:58:40.729Z,1004.51
2017-07-11T04:59:21.306Z,1004.47
2017-07-11T05:00:01.891Z,1004.47
2017-07-11T05:00:42.532Z,1004.45
2017-07-11T05:01:23.235Z,1004.47
2017-07-11T05:02:03.804Z,1004.48
2017-07-11T05:02:44.375Z,1004.46
2017-07-11T05:03:24.977Z,1004.48
2017-07-11T05:04:05.612Z,1004.48
2017-07-11T05:04:46.205Z,1004.52
2017-07-11T05:05:26.849Z,1004.5
2017-07-11T05:06:07.420Z,1004.5
2017-07-11T05:06:47.986Z,1004.54
2017-07-11T05:07:28.562Z,1004.49
2017-07-11T05:08:09.159Z,1004.53
2017-07-11T05:08:49.749Z,1004.54
2017-07-11T05:09:30.320Z,1004.49
2017-07-11T05:10:10.902Z,1004.53
2017-07-11T05:10:51.489Z,1004.53
2017-07-11T05:12:49.427Z,1004.49
2017-07-11T05:13:30.010Z,1004.57
2017-07-11T05:14:10.630Z,1004.56
2017-07-11T05:14:51.178Z,1004.57
2017-07-11T05:15:31.753Z,1004.56
2017-07-11T05:16:12.315Z,1004.57
2017-07-11T05:16:52.893Z,1004.54
2017-07-11T05:17:33.472Z,1004.6
2017-07-11T05:18:14.028Z,1004.58
2017-07-11T05:18:54.669Z,1004.6
2017-07-11T05:19:35.398Z,1004.58
2017-07-11T05:20:16.214Z,1004.58
2017-07-11T05:20:56.801Z,1004.58
2017-07-11T05:21:37.387Z,1004.58
2017-07-11T05:22:17.991Z,1004.61
2017-07-11T05:22:58.559Z,1004.61
2017-07-11T05:23:39.133Z,1004.61
2017-07-11T05:24:19.705Z,1004.64
2017-07-11T05:25:00.278Z,1004.63
2017-07-11T05:25:40.867Z,1004.64
2017-07-11T05:26:21.426Z,1004.66
2017-07-11T05:27:01.985Z,1004.66
2017-07-11T05:27:42.562Z,1004.61
2017-07-11T05:28:23.125Z,1004.62
2017-07-11T05:29:03.695Z,1004.6
2017-07-11T05:29:44.266Z,1004.65
2017-07-11T05:30:24.847Z,1004.64
2017-07-11T05:31:05.416Z,1004.63
2017-07-11T05:31:46.004Z,1004.6
2017-07-11T05:32:26.576Z,1004.61
2017-07-11T05:33:07.147Z,1004.6
2017-07-11T05:33:47.720Z,1004.57
2017-07-11T05:34:28.305Z,1004.59
2017-07-11T05:35:08.913Z,1004.6
2017-07-11T05:35:49.552Z,1004.6
2017-07-11T05:36:30.140Z,1004.57
2017-07-11T05:37:10.717Z,1004.63
2017-07-11T05:37:51.331Z,1004.6
2017-07-11T05:38:31.926Z,1004.64
2017-07-11T05:39:12.490Z,1004.66
2017-07-11T05:39:53.083Z,1004.63
2017-07-11T05:40:33.652Z,1004.67
2017-07-11T05:41:14.223Z,1004.65
2017-07-11T05:41:54.793Z,1004.66
2017-07-11T05:42:35.406Z,1004.63
2017-07-11T05:43:16.009Z,1004.62
2017-07-11T05:43:56.624Z,1004.6
2017-07-11T05:44:37.229Z,1004.59
2017-07-11T05:45:17.746Z,1004.61
2017-07-11T05:45:58.305Z,1004.59
2017-07-11T05:46:38.884Z,1004.59
2017-07-11T05:47:19.449Z,1004.64
2017-07-11T05:48:00.015Z,1004.63
2017-07-11T05:48:40.603Z,1004.65
2017-07-11T05:49:21.182Z,1004.61
2017-07-11T05:50:01.749Z,1004.62
2017-07-11T05:50:42.327Z,1004.65
2017-07-11T05:51:22.901Z,1004.65
2017-07-11T05:52:03.536Z,1004.7
2017-07-11T05:52:44.101Z,1004.76
2017-07-11T05:53:24.727Z,1004.73
2017-07-11T05:54:05.377Z,1004.74
2017-07-11T05:54:45.960Z,1004.79
2017-07-11T05:55:26.578Z,1004.85
2017-07-11T05:56:07.153Z,1004.87
2017-07-11T05:56:47.985Z,1004.92
2017-07-11T05:57:28.570Z,1004.89
2017-07-11T05:58:09.142Z,1004.92
2017-07-11T05:58:49.719Z,1004.94
2017-07-11T05:59:30.289Z,1004.94
2017-07-11T06:00:11.669Z,1004.99
2017-07-11T06:00:53.342Z,1005.03
2017-07-11T06:01:33.993Z,1005.07
2017-07-11T06:02:14.630Z,1005.05
2017-07-11T06:02:55.242Z,1005.01
2017-07-11T06:03:35.924Z,1004.98
2017-07-11T06:04:16.590Z,1005.04
2017-07-11T06:04:57.148Z,1005.07
2017-07-11T06:05:37.714Z,1005
2017-07-11T06:06:18.829Z,1005.03
2017-07-11T06:06:59.844Z,1004.98
2017-07-11T06:07:40.553Z,1004.99
2017-07-11T06:08:21.169Z,1004.93
2017-07-11T06:09:01.795Z,1004.91
2017-07-11T06:09:42.417Z,1004.96
2017-07-11T06:10:22.979Z,1004.93
2017-07-11T06:11:03.593Z,1004.96
2017-07-11T06:11:44.176Z,1004.98
2017-07-11T06:12:24.756Z,1005
2017-07-11T06:13:06.224Z,1004.81
2017-07-11T06:13:46.697Z,1004.78
2017-07-11T06:14:27.282Z,1004.75
2017-07-11T06:15:07.852Z,1004.76
2017-07-11T06:15:48.613Z,1004.8
2017-07-11T06:16:29.227Z,1004.78
2017-07-11T06:17:09.818Z,1004.79
2017-07-11T06:17:50.416Z,1004.76
2017-07-11T06:18:31.021Z,1004.8
2017-07-11T06:19:11.620Z,1004.83
2017-07-11T06:19:52.207Z,1004.82
2017-07-11T06:20:32.798Z,1004.8
2017-07-11T06:21:13.361Z,1004.77
2017-07-11T06:21:53.933Z,1004.79
2017-07-11T06:22:34.527Z,1004.81
2017-07-11T06:23:15.148Z,1004.83
2017-07-11T06:23:55.764Z,1004.84
2017-07-11T06:24:36.347Z,1004.85
2017-07-11T06:25:16.924Z,1004.84
2017-07-11T06:25:57.491Z,1004.85
2017-07-11T06:26:38.085Z,1004.84
2017-07-11T06:27:18.664Z,1004.87
2017-07-11T06:27:59.236Z,1004.97
2017-07-11T06:28:39.810Z,1005.08
2017-07-11T06:29:20.391Z,1005.06
2017-07-11T06:30:00.994Z,1005.06
2017-07-11T06:30:41.654Z,1005.09
2017-07-11T06:31:22.216Z,1005.16
2017-07-11T06:32:02.914Z,1005.15
2017-07-11T06:32:43.479Z,1005.07
2017-07-11T06:33:24.088Z,1005.13
2017-07-11T06:34:04.681Z,1005.17
2017-07-11T06:34:45.243Z,1005.28
2017-07-11T06:35:25.870Z,1005.28
2017-07-11T06:36:06.459Z,1005.27
2017-07-11T06:36:47.054Z,1005.37
2017-07-11T06:37:27.633Z,1005.41
2017-07-11T06:38:08.187Z,1005.49
2017-07-11T06:38:48.763Z,1005.52
2017-07-11T06:39:29.335Z,1005.05
2017-07-11T06:40:09.960Z,1005.12
2017-07-11T06:40:50.539Z,1005.22
2017-07-11T06:41:31.104Z,1005.34
2017-07-11T06:42:11.682Z,1005.4
2017-07-11T06:42:52.259Z,1005.42
2017-07-11T06:43:32.925Z,1005.2
2017-07-11T06:44:13.490Z,1005.36
2017-07-11T06:44:54.063Z,1005.47
2017-07-11T06:45:34.637Z,1005.3
2017-07-11T06:46:15.220Z,1005.31
2017-07-11T06:46:55.821Z,1005.15
2017-07-11T06:47:36.397Z,1005.12
2017-07-11T06:48:16.996Z,1005.09
2017-07-11T06:48:57.615Z,1005.09
2017-07-11T06:49:38.304Z,1005.02
2017-07-11T06:50:18.905Z,1005.05
2017-07-11T06:50:59.481Z,1005.02
2017-07-11T06:51:40.069Z,1005.02
2017-07-11T06:52:20.659Z,1004.99
2017-07-11T06:53:01.248Z,1005.01
2017-07-11T06:53:41.828Z,1005.08
2017-07-11T06:54:22.400Z,1005.06
2017-07-11T06:55:02.989Z,1005.12
2017-07-11T06:55:43.574Z,1005.19
2017-07-11T06:56:24.136Z,1005.21
2017-07-11T06:57:04.774Z,1005.25
2017-07-11T06:57:45.373Z,1005.34
2017-07-11T06:58:25.948Z,1005.31
2017-07-11T06:59:06.573Z,1005.25
2017-07-11T06:59:47.149Z,1005.19
2017-07-11T07:00:27.748Z,1005.17
2017-07-11T07:01:08.320Z,1005.1
2017-07-11T07:01:48.907Z,1005.12
2017-07-11T07:02:29.489Z,1005.1
2017-07-11T07:03:10.074Z,1005.11
2017-07-11T07:03:50.647Z,1005.14
2017-07-11T07:04:31.222Z,1005.11
2017-07-11T07:05:11.791Z,1005.09
2017-07-11T07:05:52.402Z,1005.15
2017-07-11T07:06:33.152Z,1005.14
2017-07-11T07:07:13.734Z,1005.13
2017-07-11T07:07:54.314Z,1005.14
2017-07-11T07:08:34.896Z,1005.11
2017-07-11T07:09:15.477Z,1005.07
2017-07-11T07:09:56.061Z,1005.1
2017-07-11T07:10:36.654Z,1005.14
2017-07-11T07:11:17.277Z,1005.18
2017-07-11T07:11:57.852Z,1005.15
2017-07-11T07:12:38.433Z,1005.16
2017-07-11T07:13:19.011Z,1005.12
2017-07-11T07:13:59.598Z,1005.16
2017-07-11T07:14:40.204Z,1005.23
2017-07-11T07:15:20.795Z,1005.24
2017-07-11T07:16:01.374Z,1005.32
2017-07-11T07:16:41.972Z,1005.35
2017-07-11T07:17:22.554Z,1005.4
2017-07-11T07:18:03.134Z,1005.28
2017-07-11T07:18:43.699Z,1005.24
2017-07-11T07:19:24.274Z,1005.27
2017-07-11T07:20:04.855Z,1005.19
2017-07-11T07:20:45.427Z,1005.17
2017-07-11T07:21:26.035Z,1005.12
2017-07-11T07:22:06.619Z,1005.22
2017-07-11T07:22:47.336Z,1005.28
2017-07-11T07:23:28.226Z,1005.3
2017-07-11T07:24:08.803Z,1005.4
2017-07-11T07:24:49.376Z,1005.37
2017-07-11T07:25:29.953Z,1005.35
2017-07-11T07:26:10.525Z,1005.36
2017-07-11T07:26:51.106Z,1005.35
2017-07-11T07:27:31.904Z,1005.4
2017-07-11T07:28:12.501Z,1005.49
2017-07-11T07:28:53.076Z,1005.43
2017-07-11T07:29:33.674Z,1005.47
2017-07-11T07:30:14.246Z,1005.48
2017-07-11T07:30:54.824Z,1005.54
2017-07-11T07:31:35.486Z,1005.56
2017-07-11T07:32:16.029Z,1005.52
2017-07-11T07:32:56.638Z,1005.56
2017-07-11T07:33:37.255Z,1005.57
2017-07-11T07:34:17.927Z,1005.53
2017-07-11T07:34:58.532Z,1005.59
2017-07-11T07:35:39.142Z,1005.56
2017-07-11T07:36:19.719Z,1005.53
2017-07-11T07:37:00.294Z,1005.56
2017-07-11T07:37:40.867Z,1005.54
2017-07-11T07:38:21.489Z,1005.51
2017-07-11T07:39:02.079Z,1005.52
2017-07-11T07:39:42.659Z,1005.52
2017-07-11T07:40:23.255Z,1005.52
2017-07-11T07:41:03.835Z,1005.55
2017-07-11T07:41:44.490Z,1005.55
2017-07-11T07:42:25.119Z,1005.52
2017-07-11T07:43:05.703Z,1005.54
2017-07-11T07:43:46.353Z,1005.54
2017-07-11T07:44:26.930Z,1005.55
2017-07-11T07:45:07.525Z,1005.52
2017-07-11T07:45:48.100Z,1005.48
2017-07-11T07:46:28.765Z,1005.54
2017-07-11T07:47:09.391Z,1005.5
2017-07-11T07:47:49.981Z,1005.44
2017-07-11T07:48:30.562Z,1005.48
2017-07-11T07:49:11.126Z,1005.45
2017-07-11T07:49:51.723Z,1005.44
2017-07-11T07:50:32.353Z,1005.42
2017-07-11T07:51:12.984Z,1005.42
2017-07-11T07:51:53.579Z,1005.41
2017-07-11T07:52:34.192Z,1005.44
2017-07-11T07:53:14.830Z,1005.38
2017-07-11T07:53:55.400Z,1005.39
2017-07-11T07:54:35.981Z,1005.37
2017-07-11T07:55:16.558Z,1005.34
2017-07-11T07:55:57.152Z,1005.34
2017-07-11T07:56:37.740Z,1005.36
2017-07-11T07:57:18.310Z,1005.39
2017-07-11T07:57:58.883Z,1005.39
2017-07-11T07:58:39.461Z,1005.43
2017-07-11T07:59:20.030Z,1005.39
2017-07-11T08:00:00.647Z,1005.39
2017-07-11T08:00:41.253Z,1005.39
2017-07-11T08:01:21.833Z,1005.41
2017-07-11T08:02:02.456Z,1005.4
2017-07-11T08:02:43.036Z,1005.37
2017-07-11T08:03:23.617Z,1005.41
2017-07-11T08:04:04.197Z,1005.4
2017-07-11T08:04:44.778Z,1005.39
2017-07-11T08:05:25.348Z,1005.42
2017-07-11T08:06:05.975Z,1005.42
2017-07-11T08:06:46.553Z,1005.4
2017-07-11T08:07:27.165Z,1005.38
2017-07-11T08:08:07.799Z,1005.42
2017-07-11T08:08:48.395Z,1005.43
2017-07-11T08:09:28.979Z,1005.4
2017-07-11T08:10:09.567Z,1005.42
2017-07-11T08:10:50.169Z,1005.41
2017-07-11T08:11:30.739Z,1005.36
2017-07-11T08:12:11.365Z,1005.41
2017-07-11T08:12:51.934Z,1005.42
2017-07-11T08:13:32.567Z,1005.43
2017-07-11T08:14:13.187Z,1005.48